createdAt,value
2022-08-30T00:01:34.045Z,17.97
2022-08-30T00:04:02.218Z,17.91
2022-08-30T00:06:30.713Z,18.03
2022-08-30T00:08:59.843Z,18.02
2022-08-30T00:11:28.580Z,18.11
2022-08-30T00:13:57.068Z,18.07
2022-08-30T00:16:26.773Z,18.16
2022-08-30T00:18:54.810Z,18.14
2022-08-30T00:21:22.939Z,18.18
2022-08-30T00:23:50.830Z,18.26
2022-08-30T00:26:18.656Z,18.22
2022-08-30T00:28:46.865Z,18.15
2022-08-30T00:31:15.398Z,18.23
2022-08-30T00:33:44.827Z,18.31
2022-08-30T00:36:12.694Z,18.20
2022-08-30T00:38:40.557Z,18.18
2022-08-30T00:41:08.485Z,18.14
2022-08-30T00:43:37.060Z,18.11
2022-08-30T00:46:07.780Z,18.06
2022-08-30T00:48:36.066Z,18.10
2022-08-30T00:51:08.798Z,18.04
2022-08-30T00:53:38.187Z,18.07
2022-08-30T00:56:06.445Z,18.10
2022-08-30T00:58:37.270Z,18.04
2022-08-30T01:01:05.228Z,17.99
2022-08-30T01:03:33.227Z,18.11
2022-08-30T01:06:01.324Z,18.13
2022-08-30T01:08:30.588Z,18.10
2022-08-30T01:10:58.380Z,18.14
2022-08-30T01:13:26.780Z,18.22
2022-08-30T01:15:54.848Z,18.20
2022-08-30T01:18:24.131Z,18.28
2022-08-30T01:20:56.072Z,18.23
2022-08-30T01:23:25.658Z,18.06
2022-08-30T01:25:55.661Z,18.16
2022-08-30T01:28:25.493Z,18.17
2022-08-30T01:30:53.400Z,18.11
2022-08-30T01:33:22.481Z,18.03
2022-08-30T01:35:53.457Z,18.09
2022-08-30T01:38:22.007Z,18.10
2022-08-30T01:40:51.330Z,18.09
2022-08-30T01:43:19.422Z,18.14
2022-08-30T01:45:47.316Z,18.09
2022-08-30T01:48:15.496Z,18.03
2022-08-30T01:50:44.273Z,18.08
2022-08-30T01:53:13.155Z,18.05
2022-08-30T01:55:41.319Z,18.06
2022-08-30T01:58:10.510Z,18.08
2022-08-30T02:00:38.729Z,18.06
2022-08-30T02:03:06.870Z,18.07
2022-08-30T02:05:34.888Z,18.10
2022-08-30T02:08:03.564Z,18.16
2022-08-30T02:10:31.573Z,18.05
2022-08-30T02:12:59.610Z,18.10
2022-08-30T02:15:28.976Z,18.08
2022-08-30T02:17:56.850Z,17.91
2022-08-30T02:20:25.132Z,17.92
2022-08-30T02:22:52.972Z,17.87
2022-08-30T02:25:21.374Z,17.88
2022-08-30T02:27:49.258Z,17.79
2022-08-30T02:30:17.388Z,17.80
2022-08-30T02:32:46.663Z,17.78
2022-08-30T02:35:14.484Z,17.81
2022-08-30T02:37:42.383Z,17.89
2022-08-30T02:40:11.909Z,17.93
2022-08-30T02:42:41.687Z,17.80
2022-08-30T02:45:10.346Z,17.76
2022-08-30T02:47:38.435Z,17.82
2022-08-30T02:50:08.564Z,17.77
2022-08-30T02:52:36.358Z,17.80
2022-08-30T02:55:04.309Z,17.67
2022-08-30T02:57:32.154Z,17.82
2022-08-30T03:00:00.061Z,17.87
2022-08-30T03:02:28.296Z,17.92
2022-08-30T03:04:57.660Z,17.86
2022-08-30T03:07:26.893Z,17.89
2022-08-30T03:09:54.707Z,17.83
2022-08-30T03:12:23.010Z,17.90
2022-08-30T03:14:50.857Z,17.93
2022-08-30T03:17:18.737Z,17.92
2022-08-30T03:19:47.208Z,17.86
2022-08-30T03:22:15.033Z,17.99
2022-08-30T03:24:45.848Z,17.97
2022-08-30T03:27:13.700Z,17.93
2022-08-30T03:29:41.493Z,17.99
2022-08-30T03:32:09.463Z,17.93
2022-08-30T03:34:37.605Z,17.86
2022-08-30T03:37:05.470Z,18.02
2022-08-30T03:39:33.385Z,17.98
2022-08-30T03:42:02.569Z,17.89
2022-08-30T03:44:31.457Z,17.86
2022-08-30T03:46:59.280Z,17.97
2022-08-30T03:49:27.394Z,17.85
2022-08-30T03:51:56.531Z,17.97
2022-08-30T03:54:24.886Z,17.93
2022-08-30T03:56:53.134Z,17.97
2022-08-30T03:59:22.436Z,17.89
2022-08-30T04:01:50.345Z,17.85
2022-08-30T04:04:20.916Z,17.82
2022-08-30T04:06:49.715Z,17.87
2022-08-30T04:09:17.728Z,17.63
2022-08-30T04:11:45.864Z,17.59
2022-08-30T04:14:14.006Z,17.56
2022-08-30T04:16:43.340Z,17.59
2022-08-30T04:19:11.519Z,17.53
2022-08-30T04:21:43.014Z,17.48
2022-08-30T04:24:11.311Z,17.42
2022-08-30T04:26:39.151Z,17.49
2022-08-30T04:29:06.919Z,17.42
2022-08-30T04:31:34.874Z,17.40
2022-08-30T04:34:04.120Z,17.40
2022-08-30T04:36:32.252Z,17.36
2022-08-30T04:39:00.130Z,17.38
2022-08-30T04:41:28.054Z,17.39
2022-08-30T04:43:56.160Z,17.43
2022-08-30T04:46:24.007Z,17.47
2022-08-30T04:48:51.874Z,17.43
2022-08-30T04:51:21.137Z,17.42
2022-08-30T04:53:48.930Z,17.22
2022-08-30T04:56:18.302Z,17.14
2022-08-30T04:58:46.517Z,17.18
2022-08-30T05:01:14.842Z,17.20
2022-08-30T05:03:46.718Z,17.11
2022-08-30T05:06:14.586Z,17.18
2022-08-30T05:08:46.106Z,17.18
2022-08-30T05:11:15.463Z,17.19
2022-08-30T05:13:43.733Z,17.20
2022-08-30T05:16:13.473Z,17.20
2022-08-30T05:18:41.367Z,17.21
2022-08-30T05:21:10.599Z,17.21
2022-08-30T05:23:38.659Z,17.17
2022-08-30T05:26:08.801Z,17.12
2022-08-30T05:28:37.810Z,17.27
2022-08-30T05:31:14.030Z,17.29
2022-08-30T05:33:42.165Z,17.25
2022-08-30T05:36:13.101Z,17.35
2022-08-30T05:38:41.064Z,17.34
2022-08-30T05:41:11.269Z,17.32
2022-08-30T05:43:39.522Z,17.33
2022-08-30T05:46:08.659Z,17.38
2022-08-30T05:48:36.642Z,17.50
2022-08-30T05:51:06.456Z,17.50
2022-08-30T05:53:34.759Z,17.56
2022-08-30T05:56:03.186Z,17.67
2022-08-30T05:58:32.960Z,17.76
2022-08-30T06:01:00.806Z,17.77
2022-08-30T06:03:28.773Z,17.77
2022-08-30T06:05:56.698Z,17.82
2022-08-30T06:08:24.750Z,17.81
2022-08-30T06:10:52.580Z,17.80
2022-08-30T06:13:20.534Z,17.86
2022-08-30T06:15:51.271Z,17.90
2022-08-30T06:18:19.714Z,18.06
2022-08-30T06:20:56.300Z,18.13
2022-08-30T06:23:24.140Z,18.17
2022-08-30T06:25:52.074Z,18.17
2022-08-30T06:28:19.960Z,18.21
2022-08-30T06:30:49.444Z,18.36
2022-08-30T06:33:17.332Z,18.36
2022-08-30T06:35:58.436Z,18.36
2022-08-30T06:38:28.196Z,18.48
2022-08-30T06:40:56.006Z,18.54
2022-08-30T06:43:23.828Z,18.60
2022-08-30T06:45:52.994Z,18.74
2022-08-30T06:48:20.955Z,18.83
2022-08-30T06:50:54.509Z,18.90
2022-08-30T06:53:22.571Z,19.06
2022-08-30T06:55:56.552Z,19.06
2022-08-30T06:58:24.379Z,19.11
2022-08-30T07:00:53.647Z,19.13
2022-08-30T07:03:21.596Z,19.22
2022-08-30T07:05:49.513Z,19.23
2022-08-30T07:08:17.740Z,19.29
2022-08-30T07:10:45.738Z,19.45
2022-08-30T07:13:13.978Z,19.45
2022-08-30T07:15:42.639Z,19.51
2022-08-30T07:18:29.695Z,19.52
2022-08-30T07:20:57.736Z,19.66
2022-08-30T07:23:25.701Z,19.58
2022-08-30T07:25:53.636Z,19.79
2022-08-30T07:28:21.758Z,19.85
2022-08-30T07:30:49.669Z,20.02
2022-08-30T07:33:19.245Z,20.11
2022-08-30T07:35:47.346Z,20.20
2022-08-30T07:38:15.459Z,20.31
2022-08-30T07:40:43.348Z,20.42
2022-08-30T07:43:16.245Z,20.47
2022-08-30T07:45:49.436Z,20.60
2022-08-30T07:48:18.743Z,20.72
2022-08-30T07:50:46.693Z,20.79
2022-08-30T07:53:14.655Z,20.94
2022-08-30T07:55:42.470Z,20.99
2022-08-30T07:58:10.696Z,21.19
2022-08-30T08:00:38.844Z,21.30
2022-08-30T08:03:08.168Z,21.32
2022-08-30T08:05:40.067Z,21.31
2022-08-30T08:08:07.974Z,21.45
2022-08-30T08:10:37.123Z,21.42
2022-08-30T08:13:05.162Z,21.51
2022-08-30T08:15:33.109Z,21.68
2022-08-30T08:18:01.238Z,21.77
2022-08-30T08:20:29.418Z,21.95
2022-08-30T08:22:58.557Z,22.07
2022-08-30T08:25:26.855Z,21.94
2022-08-30T08:27:54.732Z,22.11
2022-08-30T08:30:23.948Z,22.10
2022-08-30T08:32:52.627Z,22.08
2022-08-30T08:35:21.012Z,21.97
2022-08-30T08:37:48.960Z,22.18
2022-08-30T08:40:19.204Z,22.16
2022-08-30T08:42:56.958Z,22.19
2022-08-30T08:45:26.779Z,22.37
2022-08-30T08:47:56.844Z,22.58
2022-08-30T08:50:25.535Z,22.59
2022-08-30T08:53:25.080Z,22.59
2022-08-30T08:56:01.684Z,22.55
2022-08-30T08:58:30.578Z,22.86
2022-08-30T09:00:59.161Z,23.07
2022-08-30T09:03:28.177Z,23.02
2022-08-30T09:05:57.488Z,23.30
2022-08-30T09:08:25.340Z,23.44
2022-08-30T09:10:56.934Z,23.58
2022-08-30T09:13:26.266Z,23.39
2022-08-30T09:15:56.328Z,23.35
2022-08-30T09:18:42.986Z,23.50
2022-08-30T09:21:14.328Z,23.61
2022-08-30T09:23:48.914Z,23.66
2022-08-30T09:26:23.026Z,23.58
2022-08-30T09:28:53.708Z,23.73
2022-08-30T09:31:23.948Z,23.85
2022-08-30T09:34:02.167Z,24.09
2022-08-30T09:36:32.581Z,23.88
2022-08-30T09:39:01.697Z,24.15
2022-08-30T09:41:37.229Z,23.95
2022-08-30T09:44:09.100Z,23.87
2022-08-30T09:46:45.945Z,23.87
2022-08-30T09:49:37.673Z,23.94
2022-08-30T09:52:19.553Z,23.96
2022-08-30T09:54:56.134Z,23.93
2022-08-30T09:57:33.791Z,24.03
2022-08-30T10:00:16.407Z,23.63
2022-08-30T10:02:54.064Z,24.09
2022-08-30T10:05:25.237Z,24.17
2022-08-30T10:07:56.940Z,23.72
2022-08-30T10:10:30.768Z,23.76
2022-08-30T10:13:07.286Z,23.85
2022-08-30T10:15:38.968Z,24.15
2022-08-30T10:18:10.360Z,24.09
2022-08-30T10:20:43.052Z,24.21
2022-08-30T10:23:14.407Z,23.91
2022-08-30T10:25:48.784Z,24.10
2022-08-30T10:28:19.110Z,24.07
2022-08-30T10:30:49.637Z,24.13
2022-08-30T10:33:22.422Z,24.26
2022-08-30T10:35:55.260Z,24.10
2022-08-30T10:38:24.960Z,23.94
2022-08-30T10:41:12.391Z,24.04
2022-08-30T10:43:46.014Z,24.01
2022-08-30T10:46:23.644Z,24.10
2022-08-30T10:48:51.527Z,24.15
2022-08-30T10:51:23.006Z,24.37
2022-08-30T10:53:53.013Z,24.53
2022-08-30T10:56:24.486Z,24.71
2022-08-30T10:58:54.506Z,24.58
2022-08-30T11:01:37.333Z,24.49
2022-08-30T11:04:40.858Z,24.68
2022-08-30T11:07:20.656Z,24.56
2022-08-30T11:09:55.597Z,24.36
2022-08-30T11:12:34.445Z,24.36
2022-08-30T11:15:12.248Z,24.56
2022-08-30T11:17:44.982Z,24.36
2022-08-30T11:20:24.095Z,24.45
2022-08-30T11:23:23.166Z,24.42
2022-08-30T11:25:58.128Z,24.64
2022-08-30T11:29:00.571Z,24.62
2022-08-30T11:31:46.792Z,24.70
2022-08-30T11:34:16.877Z,24.63
2022-08-30T11:37:03.785Z,24.99
2022-08-30T11:39:54.239Z,24.84
2022-08-30T11:45:52.277Z,25.16
2022-08-30T11:48:54.167Z,24.90
2022-08-30T11:51:43.652Z,24.96
2022-08-30T11:54:23.076Z,25.04
2022-08-30T11:56:56.432Z,25.12
2022-08-30T11:59:29.147Z,25.24
2022-08-30T12:01:58.043Z,25.02
2022-08-30T12:04:44.913Z,25.01
2022-08-30T12:07:14.612Z,25.04
2022-08-30T12:10:04.214Z,25.01
2022-08-30T12:12:54.425Z,25.03
2022-08-30T12:15:45.185Z,25.09
2022-08-30T12:18:30.235Z,25.22
2022-08-30T12:21:02.789Z,25.59
2022-08-30T12:23:51.632Z,25.19
2022-08-30T12:26:32.186Z,25.22
2022-08-30T12:29:16.256Z,25.36
2022-08-30T12:31:46.493Z,25.39
2022-08-30T12:34:24.643Z,25.60
2022-08-30T12:36:56.169Z,25.57
2022-08-30T12:39:27.699Z,25.81
2022-08-30T12:41:58.628Z,25.73
2022-08-30T12:44:27.437Z,25.90
2022-08-30T12:46:59.572Z,25.85
2022-08-30T12:49:29.257Z,25.61
2022-08-30T12:51:57.547Z,25.82
2022-08-30T12:54:30.041Z,25.90
2022-08-30T12:57:14.011Z,25.73
2022-08-30T12:59:56.779Z,25.82
2022-08-30T13:02:28.714Z,25.83
2022-08-30T13:04:56.993Z,25.90
2022-08-30T13:07:26.523Z,25.91
2022-08-30T13:10:06.696Z,26.04
2022-08-30T13:12:36.047Z,26.09
2022-08-30T13:15:17.977Z,26.08
2022-08-30T13:17:48.236Z,26.08
2022-08-30T13:20:24.877Z,26.31
2022-08-30T13:23:03.352Z,26.48
2022-08-30T13:25:33.020Z,26.22
2022-08-30T13:28:01.731Z,26.11
2022-08-30T13:30:29.638Z,26.11
2022-08-30T13:32:57.507Z,26.33
2022-08-30T13:35:25.391Z,26.21
2022-08-30T13:37:53.242Z,26.39
2022-08-30T13:40:21.682Z,26.75
2022-08-30T13:42:51.769Z,26.58
2022-08-30T13:48:10.467Z,26.62
2022-08-30T13:50:38.382Z,26.39
2022-08-30T13:53:06.290Z,26.61
2022-08-30T13:55:34.830Z,26.63
2022-08-30T13:58:04.072Z,26.25
2022-08-30T14:00:37.495Z,26.33
2022-08-30T14:03:05.852Z,26.40
2022-08-30T14:06:09.900Z,26.46
2022-08-30T14:11:18.398Z,26.32
2022-08-30T14:16:37.373Z,26.01
2022-08-30T14:19:05.734Z,26.20
2022-08-30T14:21:39.484Z,26.08
2022-08-30T14:24:12.027Z,26.41
2022-08-30T14:26:45.312Z,26.48
2022-08-30T14:29:15.882Z,26.20
2022-08-30T14:31:44.234Z,26.17
2022-08-30T14:34:12.711Z,26.27
2022-08-30T14:36:41.980Z,26.13
2022-08-30T14:39:11.254Z,25.98
2022-08-30T14:41:43.873Z,26.06
2022-08-30T14:44:12.333Z,26.15
2022-08-30T14:46:46.311Z,25.92
2022-08-30T14:49:17.494Z,26.21
2022-08-30T14:51:48.393Z,26.21
2022-08-30T14:54:16.354Z,26.08
2022-08-30T14:56:44.142Z,25.90
2022-08-30T14:59:13.310Z,26.02
2022-08-30T15:01:43.035Z,26.21
2022-08-30T15:04:11.687Z,26.21
2022-08-30T15:06:40.324Z,26.16
2022-08-30T15:09:10.257Z,26.15
2022-08-30T15:11:38.380Z,26.34
2022-08-30T15:14:07.037Z,26.09
2022-08-30T15:16:36.531Z,26.17
2022-08-30T15:19:06.803Z,26.20
2022-08-30T15:21:35.803Z,26.06
2022-08-30T15:24:04.374Z,25.95
2022-08-30T15:26:32.933Z,26.09
2022-08-30T15:29:01.330Z,25.82
2022-08-30T15:31:29.560Z,25.89
2022-08-30T15:34:02.072Z,25.60
2022-08-30T15:36:35.615Z,25.54
2022-08-30T15:39:05.040Z,25.82
2022-08-30T15:41:33.941Z,25.76
2022-08-30T15:44:06.046Z,25.83
2022-08-30T15:46:35.668Z,25.71
2022-08-30T15:49:05.811Z,25.74
2022-08-30T15:51:41.949Z,25.87
2022-08-30T15:54:14.622Z,25.78
2022-08-30T15:56:44.366Z,25.47
2022-08-30T15:59:15.414Z,25.65
2022-08-30T16:01:44.063Z,25.58
2022-08-30T16:04:12.243Z,25.50
2022-08-30T16:06:41.914Z,25.47
2022-08-30T16:09:10.086Z,25.41
2022-08-30T16:11:38.207Z,25.22
2022-08-30T16:14:06.777Z,25.05
2022-08-30T16:16:37.602Z,24.80
2022-08-30T16:19:05.780Z,24.79
2022-08-30T16:21:36.745Z,24.89
2022-08-30T16:24:10.501Z,24.85
2022-08-30T16:26:42.073Z,24.56
2022-08-30T16:29:10.908Z,24.54
2022-08-30T16:31:38.977Z,24.65
2022-08-30T16:34:07.126Z,24.35
2022-08-30T16:36:36.102Z,24.44
2022-08-30T16:39:05.832Z,24.50
2022-08-30T16:41:36.647Z,24.52
2022-08-30T16:44:05.223Z,24.23
2022-08-30T16:46:33.352Z,24.11
2022-08-30T16:49:02.317Z,24.13
2022-08-30T16:51:31.812Z,23.85
2022-08-30T16:54:01.313Z,23.90
2022-08-30T16:56:31.570Z,24.01
2022-08-30T16:59:02.149Z,24.09
2022-08-30T17:01:31.639Z,23.81
2022-08-30T17:03:59.568Z,23.89
2022-08-30T17:06:27.735Z,23.73
2022-08-30T17:08:56.529Z,23.55
2022-08-30T17:11:24.965Z,23.60
2022-08-30T17:13:54.179Z,23.42
2022-08-30T17:16:27.375Z,23.34
2022-08-30T17:18:59.572Z,23.18
2022-08-30T17:21:28.374Z,23.23
2022-08-30T17:24:01.559Z,23.07
2022-08-30T17:26:31.133Z,23.19
2022-08-30T17:29:05.427Z,22.99
2022-08-30T17:31:38.241Z,22.92
2022-08-30T17:34:06.341Z,22.99
2022-08-30T17:36:35.216Z,22.96
2022-08-30T17:39:10.514Z,22.83
2022-08-30T17:41:40.091Z,22.73
2022-08-30T17:44:16.554Z,22.85
2022-08-30T17:46:44.783Z,22.83
2022-08-30T17:49:13.121Z,22.70
2022-08-30T17:51:42.757Z,22.64
2022-08-30T17:54:12.089Z,22.47
2022-08-30T17:56:39.930Z,22.57
2022-08-30T17:59:09.099Z,22.51
2022-08-30T18:01:38.760Z,22.43
2022-08-30T18:04:06.755Z,22.33
2022-08-30T18:06:34.981Z,22.26
2022-08-30T18:09:03.110Z,22.32
2022-08-30T18:11:30.904Z,22.21
2022-08-30T18:13:58.753Z,22.21
2022-08-30T18:16:26.928Z,22.09
2022-08-30T18:18:57.332Z,22.12
2022-08-30T18:21:28.467Z,21.93
2022-08-30T18:23:56.801Z,21.88
2022-08-30T18:26:24.702Z,21.98
2022-08-30T18:28:53.542Z,21.83
2022-08-30T18:31:21.405Z,21.88
2022-08-30T18:33:49.266Z,21.78
2022-08-30T18:36:19.372Z,21.73
2022-08-30T18:38:51.530Z,21.69
2022-08-30T18:41:21.933Z,21.63
2022-08-30T18:43:58.231Z,21.62
2022-08-30T18:46:38.000Z,21.50
2022-08-30T18:49:23.628Z,21.46
2022-08-30T18:51:55.820Z,21.42
2022-08-30T18:54:23.826Z,21.39
2022-08-30T18:56:51.891Z,21.40
2022-08-30T18:59:20.037Z,21.30
2022-08-30T19:01:48.824Z,21.27
2022-08-30T19:04:29.503Z,21.24
2022-08-30T19:07:08.250Z,21.12
2022-08-30T19:09:45.356Z,21.24
2022-08-30T19:12:16.022Z,21.07
2022-08-30T19:14:44.465Z,20.91
2022-08-30T19:17:12.766Z,20.96
2022-08-30T19:19:46.359Z,20.86
2022-08-30T19:22:18.853Z,20.82
2022-08-30T19:24:46.968Z,20.86
2022-08-30T19:27:14.809Z,20.71
2022-08-30T19:29:44.577Z,20.81
2022-08-30T19:32:13.181Z,20.68
2022-08-30T19:34:42.213Z,20.68
2022-08-30T19:37:10.145Z,20.65
2022-08-30T19:39:44.075Z,20.75
2022-08-30T19:42:14.905Z,20.61
2022-08-30T19:44:42.742Z,20.63
2022-08-30T19:47:11.919Z,20.58
2022-08-30T19:49:40.212Z,20.59
2022-08-30T19:52:08.131Z,20.47
2022-08-30T19:54:36.234Z,20.47
2022-08-30T19:57:06.021Z,20.47
2022-08-30T19:59:34.115Z,20.41
2022-08-30T20:02:03.673Z,20.45
2022-08-30T20:04:31.666Z,20.36
2022-08-30T20:06:59.526Z,20.49
2022-08-30T20:09:27.804Z,20.45
2022-08-30T20:11:58.980Z,20.38
2022-08-30T20:14:28.849Z,20.36
2022-08-30T20:16:57.603Z,20.33
2022-08-30T20:19:27.502Z,20.25
2022-08-30T20:22:04.311Z,20.29
2022-08-30T20:27:09.211Z,20.12
2022-08-30T20:29:41.219Z,20.12
2022-08-30T20:32:09.312Z,20.10
2022-08-30T20:34:37.180Z,19.99
2022-08-30T20:37:08.168Z,20.03
2022-08-30T20:39:36.501Z,19.94
2022-08-30T20:42:04.659Z,19.91
2022-08-30T20:44:32.907Z,19.94
2022-08-30T20:47:03.696Z,19.90
2022-08-30T20:49:31.719Z,19.98
2022-08-30T20:51:59.514Z,19.92
2022-08-30T20:54:27.633Z,19.88
2022-08-30T20:56:55.458Z,19.95
2022-08-30T20:59:23.331Z,19.93
2022-08-30T21:01:51.327Z,20.02
2022-08-30T21:04:20.823Z,19.99
2022-08-30T21:06:48.752Z,19.94
2022-08-30T21:09:19.539Z,19.87
2022-08-30T21:11:48.737Z,19.88
2022-08-30T21:14:16.658Z,20.00
2022-08-30T21:16:45.128Z,19.99
2022-08-30T21:19:13.563Z,19.94
2022-08-30T21:21:43.652Z,19.92
2022-08-30T21:24:11.804Z,19.96
2022-08-30T21:26:39.821Z,19.84
2022-08-30T21:29:07.677Z,19.76
2022-08-30T21:31:37.714Z,19.80
2022-08-30T21:34:05.908Z,19.80
2022-08-30T21:36:48.002Z,19.84
2022-08-30T21:39:20.616Z,19.76
2022-08-30T21:41:49.077Z,19.85
2022-08-30T21:44:18.076Z,19.77
2022-08-30T21:46:46.275Z,19.76
2022-08-30T21:49:16.065Z,19.75
2022-08-30T21:51:44.802Z,19.67
2022-08-30T21:54:12.808Z,19.70
2022-08-30T21:56:43.329Z,19.70
2022-08-30T21:59:11.357Z,19.66
2022-08-30T22:01:39.383Z,19.58
2022-08-30T22:04:08.671Z,19.60
2022-08-30T22:06:37.377Z,19.63
2022-08-30T22:09:07.208Z,19.72
2022-08-30T22:11:35.516Z,19.64
2022-08-30T22:14:05.127Z,19.55
2022-08-30T22:16:33.087Z,19.60
2022-08-30T22:19:01.977Z,19.67
2022-08-30T22:21:31.240Z,19.59
2022-08-30T22:23:59.510Z,19.51
2022-08-30T22:26:27.375Z,19.62
2022-08-30T22:28:55.488Z,19.56
2022-08-30T22:31:24.978Z,19.49
2022-08-30T22:33:55.095Z,19.64
2022-08-30T22:36:24.046Z,19.55
2022-08-30T22:39:00.542Z,19.41
2022-08-30T22:41:31.270Z,19.50
2022-08-30T22:43:59.442Z,19.39
2022-08-30T22:46:33.607Z,19.47
2022-08-30T22:49:02.547Z,19.55
2022-08-30T22:51:30.458Z,19.50
2022-08-30T22:53:58.553Z,19.38
2022-08-30T22:56:26.635Z,19.44
2022-08-30T22:58:55.332Z,19.30
2022-08-30T23:01:24.286Z,19.29
2022-08-30T23:03:53.562Z,19.35
2022-08-30T23:06:21.412Z,19.26
2022-08-30T23:08:49.742Z,19.31
2022-08-30T23:11:17.952Z,19.26
2022-08-30T23:13:45.896Z,19.29
2022-08-30T23:16:14.007Z,19.25
2022-08-30T23:18:43.281Z,19.26
2022-08-30T23:21:13.782Z,19.19
2022-08-30T23:23:59.627Z,19.34
2022-08-30T23:26:44.974Z,19.22
2022-08-30T23:29:32.668Z,19.14
2022-08-30T23:32:18.059Z,19.07
2022-08-30T23:35:03.902Z,19.09
2022-08-30T23:37:53.295Z,19.03
2022-08-30T23:40:39.539Z,19.13
2022-08-30T23:43:25.284Z,19.01
2022-08-30T23:46:11.042Z,18.96
2022-08-30T23:49:04.358Z,18.93
2022-08-30T23:51:49.721Z,18.95
2022-08-30T23:54:36.353Z,18.88
2022-08-30T23:57:23.330Z,18.81
